Time;durP1;ratioP1;P1;durP2;ratioP2;P2;SDS_P1;SDS_P2;PMS_P1;PMS_P2;Temp;Humidity;BMP_temperature;BMP_pressure;BME280_temperature;BME280_humidity;BME280_pressure;Samples;Min_cycle;Max_cycle;Signal;HPM_P1;HPM_P2
2023/10/03 00:01:52;;;;;;;25.02;12.80;;;19.10;96.20;;;;;;4996137;28;20038;-81
2023/10/03 00:04:19;;;;;;;34.65;14.32;;;19.10;96.20;;;;;;4996300;28;20049;-80
2023/10/03 00:06:46;;;;;;;31.38;15.10;;;19.10;96.10;;;;;;4996255;28;20027;-80
2023/10/03 00:09:13;;;;;;;30.00;14.43;;;19.10;96.00;;;;;;4996185;28;20042;-81
2023/10/03 00:11:39;;;;;;;28.70;14.02;;;19.10;95.90;;;;;;4995710;28;20054;-81
2023/10/03 00:14:07;;;;;;;29.65;14.88;;;19.10;95.90;;;;;;4996679;28;20478;-81
2023/10/03 00:16:33;;;;;;;29.55;14.60;;;19.20;95.90;;;;;;4996570;28;20113;-81
2023/10/03 00:19:00;;;;;;;31.95;15.52;;;19.20;95.80;;;;;;4996057;28;20458;-80
2023/10/03 00:21:25;;;;;;;28.38;13.95;;;19.20;95.80;;;;;;4978284;28;20030;-81
2023/10/03 00:23:51;;;;;;;30.73;16.48;;;19.20;95.70;;;;;;4995920;28;20524;-80
2023/10/03 00:26:17;;;;;;;29.40;14.50;;;19.20;95.70;;;;;;4995508;28;20035;-80
2023/10/03 00:28:44;;;;;;;29.85;14.55;;;19.20;95.60;;;;;;4994824;28;20129;-80
2023/10/03 00:31:11;;;;;;;29.15;14.88;;;19.20;95.60;;;;;;4995821;28;20069;-81
2023/10/03 00:33:37;;;;;;;31.55;14.85;;;19.20;95.50;;;;;;4978486;28;20035;-80
2023/10/03 00:36:04;;;;;;;26.40;13.48;;;19.20;95.50;;;;;;4995499;28;20097;-80
2023/10/03 00:38:30;;;;;;;30.45;15.10;;;19.30;95.40;;;;;;4995981;28;20041;-80
2023/10/03 00:40:55;;;;;;;31.33;14.90;;;19.30;95.40;;;;;;4995448;28;20034;-81
2023/10/03 00:43:22;;;;;;;30.55;15.35;;;19.20;95.30;;;;;;4996178;28;20536;-80
2023/10/03 00:45:51;;;;;;;30.27;15.85;;;19.30;95.30;;;;;;4995681;28;20041;-80
2023/10/03 00:48:18;;;;;;;32.50;16.60;;;19.30;95.30;;;;;;4995327;28;20038;-80
2023/10/03 00:50:44;;;;;;;29.42;15.48;;;19.30;95.30;;;;;;4995458;28;20042;-80
2023/10/03 00:53:12;;;;;;;33.08;14.32;;;19.20;95.20;;;;;;4995614;28;20046;-80
2023/10/03 00:55:41;;;;;;;29.98;14.93;;;19.30;95.10;;;;;;4977989;28;20106;-82
2023/10/03 01:00:50;;;;;;;33.03;16.25;;;19.30;95.30;;;;;;4995761;28;20050;-81
2023/10/03 01:03:28;;;;;;;27.95;14.57;;;19.30;94.90;;;;;;4978093;28;20031;-81
2023/10/03 01:05:54;;;;;;;37.75;16.50;;;19.30;94.80;;;;;;4995308;28;20050;-80
2023/10/03 01:08:23;;;;;;;36.30;17.20;;;19.30;94.70;;;;;;4995039;28;20034;-80
2023/10/03 01:10:54;;;;;;;33.47;17.48;;;19.30;94.60;;;;;;4977565;28;20478;-81
2023/10/03 01:13:20;;;;;;;35.08;16.55;;;19.30;94.50;;;;;;4977588;28;20062;-80
2023/10/03 01:15:50;;;;;;;29.73;14.57;;;19.40;94.40;;;;;;4995279;28;20026;-80
2023/10/03 01:18:22;;;;;;;32.42;16.15;;;19.40;94.30;;;;;;4994835;28;20486;-82
2023/10/03 01:20:51;;;;;;;34.05;16.60;;;19.40;94.20;;;;;;4994556;28;20045;-80
2023/10/03 01:23:17;;;;;;;34.83;16.40;;;19.40;94.00;;;;;;4994691;28;20109;-80
2023/10/03 01:25:43;;;;;;;33.80;16.92;;;19.40;93.90;;;;;;4995025;28;20045;-81
2023/10/03 01:28:10;;;;;;;31.73;15.57;;;19.40;93.80;;;;;;4994844;28;20034;-81
2023/10/03 01:30:40;;;;;;;35.25;16.80;;;19.50;93.80;;;;;;4994729;28;20105;-81
2023/10/03 01:33:07;;;;;;;35.65;16.33;;;19.50;93.60;;;;;;4994959;28;20122;-81
2023/10/03 01:35:33;;;;;;;31.40;15.23;;;19.50;93.90;;;;;;4995048;28;20030;-81
2023/10/03 01:37:59;;;;;;;33.03;16.48;;;19.50;93.80;;;;;;4994106;28;20500;-81
2023/10/03 01:40:26;;;;;;;33.88;15.30;;;19.50;93.40;;;;;;4994423;28;20030;-81
2023/10/03 01:42:52;;;;;;;31.30;15.85;;;19.50;93.30;;;;;;4994349;28;20057;-81
2023/10/03 01:45:21;;;;;;;30.90;15.30;;;19.50;93.30;;;;;;4977101;28;20062;-81
2023/10/03 01:47:50;;;;;;;29.80;14.60;;;19.50;93.30;;;;;;4994805;28;20033;-81
2023/10/03 01:50:20;;;;;;;29.67;14.80;;;19.50;93.20;;;;;;4976964;28;20035;-81
2023/10/03 01:52:48;;;;;;;33.20;16.25;;;19.50;93.20;;;;;;4976870;28;20026;-81
2023/10/03 01:55:20;;;;;;;35.25;15.82;;;19.50;93.10;;;;;;4976739;28;20035;-81
2023/10/03 01:58:03;;;;;;;32.22;16.55;;;19.50;93.00;;;;;;4992944;28;20508;-82
2023/10/03 02:00:30;;;;;;;32.97;16.70;;;19.50;93.00;;;;;;4994259;28;20093;-81
2023/10/03 02:03:04;;;;;;;31.02;15.50;;;19.50;92.90;;;;;;4994464;28;20549;-80
2023/10/03 02:05:34;;;;;;;31.15;15.07;;;19.50;92.80;;;;;;4994026;28;20042;-80
2023/10/03 02:10:35;;;;;;;35.85;17.58;;;19.50;92.80;;;;;;4994071;28;20044;-81
2023/10/03 02:13:11;;;;;;;34.47;15.65;;;19.50;92.70;;;;;;4993714;28;20452;-81
2023/10/03 02:15:39;;;;;;;34.83;16.33;;;19.50;92.70;;;;;;4993949;28;20033;-81
2023/10/03 02:18:05;;;;;;;33.05;16.15;;;19.50;92.60;;;;;;4994036;28;20081;-81
2023/10/03 02:20:38;;;;;;;34.20;15.73;;;19.50;92.60;;;;;;4994109;28;20043;-80
2023/10/03 02:23:08;;;;;;;33.25;15.68;;;19.50;92.60;;;;;;4993845;28;20038;-81
2023/10/03 02:25:37;;;;;;;35.40;17.20;;;19.50;92.50;;;;;;4993861;28;20034;-81
2023/10/03 02:28:05;;;;;;;30.17;16.52;;;19.50;92.50;;;;;;4993714;28;20041;-80
2023/10/03 02:30:31;;;;;;;35.78;17.67;;;19.50;92.50;;;;;;4993562;28;20042;-80
2023/10/03 02:32:57;;;;;;;32.45;16.23;;;19.50;92.50;;;;;;4993910;28;20121;-80
2023/10/03 02:35:25;;;;;;;36.03;17.05;;;19.50;92.50;;;;;;4976147;28;20027;-80
2023/10/03 02:37:58;;;;;;;35.92;16.60;;;19.50;92.50;;;;;;4993376;28;20046;-81
2023/10/03 02:40:28;;;;;;;36.05;17.63;;;19.40;92.40;;;;;;4994020;28;20501;-81
2023/10/03 02:42:54;;;;;;;30.20;15.50;;;19.50;92.40;;;;;;4993785;28;20069;-80
2023/10/03 02:45:25;;;;;;;33.25;15.43;;;19.50;92.40;;;;;;4994381;28;20114;-80
2023/10/03 02:48:14;;;;;;;30.55;15.48;;;19.50;92.40;;;;;;4993815;28;20034;-81
2023/10/03 02:50:47;;;;;;;33.03;16.35;;;19.50;92.40;;;;;;4994420;28;20042;-80
2023/10/03 02:53:20;;;;;;;36.03;16.75;;;19.50;92.40;;;;;;4997537;28;20478;-80
2023/10/03 02:55:51;;;;;;;33.67;17.45;;;19.40;92.40;;;;;;4991280;28;20050;-81
2023/10/03 02:58:19;;;;;;;33.45;16.00;;;19.40;92.50;;;;;;4977468;28;20035;-81
2023/10/03 03:00:46;;;;;;;35.92;16.50;;;19.40;92.50;;;;;;4959431;28;20058;-80
2023/10/03 03:03:14;;;;;;;30.40;14.98;;;19.40;92.40;;;;;;4976902;28;20038;-80
2023/10/03 03:05:41;;;;;;;32.20;15.27;;;19.40;92.50;;;;;;4958629;28;20063;-79
2023/10/03 03:08:23;;;;;;;31.33;15.52;;;19.40;92.50;;;;;;4976465;28;20054;-80
2023/10/03 03:10:55;;;;;;;33.70;16.42;;;19.40;92.50;;;;;;4976387;28;20203;-81
2023/10/03 03:13:23;;;;;;;33.03;16.60;;;19.40;92.50;;;;;;4976889;28;20103;-81
2023/10/03 03:15:53;;;;;;;33.13;15.98;;;19.40;92.50;;;;;;4977587;28;20114;-80
2023/10/03 03:18:24;;;;;;;34.90;16.52;;;19.50;92.60;;;;;;4977927;28;20100;-83
2023/10/03 03:20:57;;;;;;;33.70;16.08;;;19.50;92.60;;;;;;4977317;28;20034;-81
2023/10/03 03:23:30;;;;;;;31.17;15.63;;;19.50;92.60;;;;;;4960282;28;20119;-82
2023/10/03 03:26:12;;;;;;;30.02;15.02;;;19.50;92.60;;;;;;4977556;28;20035;-82
2023/10/03 03:28:44;;;;;;;26.90;13.77;;;19.50;92.60;;;;;;4977311;28;20035;-81
2023/10/03 03:31:22;;;;;;;29.77;14.90;;;19.50;92.60;;;;;;4977239;28;20035;-81
2023/10/03 03:33:53;;;;;;;30.73;13.60;;;19.50;92.60;;;;;;4959703;28;20480;-82
2023/10/03 03:36:20;;;;;;;30.80;15.02;;;19.60;92.70;;;;;;4977577;28;20065;-81
2023/10/03 03:38:51;;;;;;;27.77;13.15;;;19.60;92.70;;;;;;4959890;28;20395;-81
2023/10/03 03:41:18;;;;;;;30.00;14.63;;;19.60;92.70;;;;;;4977369;28;20042;-81
2023/10/03 03:43:48;;;;;;;31.83;14.52;;;19.60;92.70;;;;;;4977452;28;20072;-82
2023/10/03 03:46:13;;;;;;;27.90;14.05;;;19.60;92.70;;;;;;4977323;28;20390;-81
2023/10/03 03:48:39;;;;;;;30.10;14.38;;;19.60;92.70;;;;;;4976829;28;20110;-81
2023/10/03 03:51:12;;;;;;;33.78;15.00;;;19.60;92.70;;;;;;4977194;28;20510;-82
2023/10/03 03:53:43;;;;;;;29.58;14.13;;;19.60;92.70;;;;;;4977225;28;20574;-81
2023/10/03 03:56:12;;;;;;;27.63;13.82;;;19.60;92.70;;;;;;4976643;28;20038;-81
2023/10/03 03:58:45;;;;;;;29.48;14.40;;;19.60;92.90;;;;;;4977192;28;20039;-80
2023/10/03 04:01:14;;;;;;;30.88;15.75;;;19.60;92.70;;;;;;4976588;28;20051;-81
2023/10/03 04:03:42;;;;;;;30.20;14.48;;;19.60;92.70;;;;;;4975498;28;20031;-82
2023/10/03 04:06:08;;;;;;;26.92;13.35;;;19.60;92.80;;;;;;4976822;28;20031;-81
2023/10/03 04:08:35;;;;;;;29.92;13.00;;;19.60;92.70;;;;;;4976631;28;20118;-80
2023/10/03 04:11:02;;;;;;;25.23;11.65;;;19.60;92.80;;;;;;4976944;28;20038;-83
2023/10/03 04:13:30;;;;;;;26.40;13.70;;;19.60;92.80;;;;;;4976745;28;20054;-81
2023/10/03 04:15:58;;;;;;;29.85;13.45;;;19.60;92.90;;;;;;4959296;28;20039;-81
2023/10/03 04:18:24;;;;;;;27.02;13.18;;;19.60;92.90;;;;;;4976209;28;20042;-82
2023/10/03 04:20:50;;;;;;;27.85;13.32;;;19.70;93.00;;;;;;4975255;28;20062;-83
2023/10/03 04:23:16;;;;;;;29.52;12.43;;;19.70;93.00;;;;;;4976507;28;20054;-82
2023/10/03 04:25:42;;;;;;;27.55;12.43;;;19.70;93.10;;;;;;4976672;28;20034;-81
2023/10/03 04:28:11;;;;;;;19.85;9.93;;;19.70;93.10;;;;;;4976809;28;20368;-82
2023/10/03 04:30:39;;;;;;;22.77;10.98;;;19.70;93.20;;;;;;4975136;28;20039;-81
2023/10/03 04:33:05;;;;;;;25.67;11.32;;;19.70;93.20;;;;;;4976392;28;20054;-82
2023/10/03 04:35:30;;;;;;;20.17;10.93;;;19.70;93.20;;;;;;4976358;28;20066;-83
2023/10/03 04:37:57;;;;;;;19.20;9.90;;;19.70;93.30;;;;;;4976417;28;20031;-83
2023/10/03 04:40:37;;;;;;;20.85;9.75;;;19.70;93.30;;;;;;4976615;28;20047;-82
2023/10/03 04:43:15;;;;;;;21.48;8.75;;;19.70;93.30;;;;;;4976221;28;20058;-88
2023/10/03 04:45:44;;;;;;;17.48;8.43;;;19.70;93.30;;;;;;4976161;28;20519;-80
2023/10/03 04:48:13;;;;;;;19.80;6.55;;;19.70;93.20;;;;;;4975561;28;20054;-85
2023/10/03 04:50:40;;;;;;;13.65;5.28;;;19.70;93.00;;;;;;4975986;28;20042;-81
2023/10/03 04:53:14;;;;;;;10.38;4.53;;;19.70;93.00;;;;;;4959118;28;20105;-84
2023/10/03 04:55:40;;;;;;;;;;;19.60;92.90;;;;;;4975032;28;20042;-80
2023/10/03 04:58:06;;;;;;;11.77;5.15;;;19.60;93.10;;;;;;4975935;28;19913;-79
2023/10/03 05:00:31;;;;;;;12.95;4.70;;;19.50;93.20;;;;;;4975665;28;20435;-80
2023/10/03 05:02:57;;;;;;;13.30;4.75;;;19.40;93.20;;;;;;4975712;28;20034;-85
2023/10/03 05:05:24;;;;;;;13.32;5.05;;;19.40;93.30;;;;;;4975754;28;20035;-81
2023/10/03 05:07:58;;;;;;;13.68;5.05;;;19.40;93.30;;;;;;4975661;28;20484;-85
2023/10/03 05:10:24;;;;;;;;;;;19.40;93.30;;;;;;4974693;28;20556;-82
2023/10/03 05:12:51;;;;;;;13.30;4.60;;;19.40;93.20;;;;;;4975149;28;19949;-82
2023/10/03 05:15:18;;;;;;;13.52;4.97;;;19.40;93.20;;;;;;4975101;28;20038;-79
2023/10/03 05:17:45;;;;;;;11.40;4.70;;;19.40;93.10;;;;;;4975508;28;20101;-80
2023/10/03 05:20:20;;;;;;;14.10;4.75;;;19.30;93.00;;;;;;4968495;28;20038;-79
2023/10/03 05:22:49;;;;;;;9.45;4.00;;;19.30;93.00;;;;;;4967427;28;20031;-79
2023/10/03 05:25:18;;;;;;;17.08;4.22;;;19.30;93.00;;;;;;4965050;28;20111;-83
2023/10/03 05:27:49;;;;;;;10.63;5.10;;;19.30;93.00;;;;;;4994345;28;20057;-80
2023/10/03 05:30:15;;;;;;;12.80;4.60;;;19.20;93.10;;;;;;4994052;28;20026;-80
2023/10/03 05:32:42;;;;;;;9.50;4.45;;;19.20;93.20;;;;;;4968718;28;20102;-79
2023/10/03 05:35:09;;;;;;;13.25;4.07;;;19.20;93.20;;;;;;4983702;28;20058;-82
2023/10/03 05:37:35;;;;;;;15.77;5.93;;;19.10;93.30;;;;;;4982825;28;20501;-78
2023/10/03 05:40:19;;;;;;;10.85;3.60;;;19.10;93.40;;;;;;4974993;28;20490;-78
2023/10/03 05:42:45;;;;;;;13.20;4.32;;;19.10;93.40;;;;;;4957464;28;20435;-79
2023/10/03 05:45:15;;;;;;;10.15;4.18;;;19.10;93.40;;;;;;4957119;28;20457;-77
2023/10/03 05:47:48;;;;;;;11.32;3.85;;;19.10;93.40;;;;;;4957953;28;20038;-80
2023/10/03 05:50:15;;;;;;;11.17;4.63;;;19.10;93.40;;;;;;4957358;28;20066;-79
2023/10/03 05:52:43;;;;;;;12.40;3.60;;;19.10;93.40;;;;;;4974725;28;20034;-78
2023/10/03 05:55:09;;;;;;;10.25;4.10;;;19.10;93.40;;;;;;4974937;28;20395;-81
2023/10/03 05:57:37;;;;;;;11.73;4.10;;;19.10;93.50;;;;;;4974626;28;20467;-81
2023/10/03 06:00:11;;;;;;;9.05;4.00;;;19.10;93.50;;;;;;4974423;28;20066;-78
2023/10/03 06:02:39;;;;;;;10.10;4.07;;;19.10;93.50;;;;;;4974552;28;20047;-81
2023/10/03 06:05:08;;;;;;;11.00;4.05;;;19.10;93.50;;;;;;4974645;28;20027;-82
2023/10/03 06:07:36;;;;;;;10.05;3.72;;;19.10;93.50;;;;;;4974363;28;20094;-78
2023/10/03 06:10:04;;;;;;;9.50;3.97;;;19.10;93.60;;;;;;4974466;28;20525;-78
2023/10/03 06:12:32;;;;;;;12.07;4.28;;;19.10;93.60;;;;;;4974205;28;20114;-78
2023/10/03 06:14:58;;;;;;;9.57;3.92;;;19.10;93.70;;;;;;4974282;28;20070;-77
2023/10/03 06:17:24;;;;;;;10.48;4.47;;;19.10;93.70;;;;;;4957123;28;20480;-77
2023/10/03 06:19:52;;;;;;;11.07;4.55;;;19.10;93.70;;;;;;4974784;28;20045;-79
2023/10/03 06:22:18;;;;;;;12.15;4.40;;;19.10;93.80;;;;;;4974666;28;20035;-79
2023/10/03 06:24:44;;;;;;;10.50;4.32;;;19.10;93.80;;;;;;4973838;28;20045;-78
2023/10/03 06:27:10;;;;;;;11.80;4.45;;;19.10;93.80;;;;;;4974204;28;20097;-78
2023/10/03 06:29:40;;;;;;;12.95;4.72;;;19.10;93.90;;;;;;4973687;28;20070;-81
2023/10/03 06:32:06;;;;;;;9.82;4.55;;;19.10;93.90;;;;;;4974005;28;20439;-78
2023/10/03 06:34:33;;;;;;;13.25;5.47;;;19.00;93.90;;;;;;4973974;28;20038;-78
2023/10/03 06:36:59;;;;;;;14.35;5.10;;;19.10;94.00;;;;;;4974248;28;20057;-78
2023/10/03 06:39:25;;;;;;;9.63;4.47;;;19.10;94.00;;;;;;4974291;28;20037;-78
2023/10/03 06:41:55;;;;;;;16.27;4.57;;;19.10;94.00;;;;;;4957009;28;20130;-78
2023/10/03 06:44:21;;;;;;;13.35;4.78;;;19.10;94.00;;;;;;4973913;28;20027;-78
2023/10/03 06:46:47;;;;;;;12.07;5.47;;;19.10;94.00;;;;;;4956561;28;20027;-78
2023/10/03 06:49:13;;;;;;;9.27;4.07;;;19.20;94.00;;;;;;4956565;28;20503;-78
2023/10/03 06:51:39;;;;;;;11.85;4.68;;;19.20;94.00;;;;;;4973789;28;20031;-81
2023/10/03 06:54:05;;;;;;;8.90;4.47;;;19.20;94.00;;;;;;4973914;28;20031;-78
2023/10/03 06:56:32;;;;;;;11.45;4.70;;;19.20;93.90;;;;;;4956693;28;20038;-77
2023/10/03 06:58:59;;;;;;;11.75;5.70;;;19.10;94.00;;;;;;4973927;28;20508;-78
2023/10/03 07:01:25;;;;;;;14.15;4.97;;;19.20;93.90;;;;;;4973811;28;20047;-78
2023/10/03 07:03:53;;;;;;;11.93;4.03;;;19.20;93.90;;;;;;4974381;28;20054;-78
2023/10/03 07:06:19;;;;;;;11.18;4.43;;;19.20;93.90;;;;;;4974676;28;20035;-79
2023/10/03 07:08:45;;;;;;;12.38;4.47;;;19.20;93.80;;;;;;4973795;28;20522;-77
2023/10/03 07:11:12;;;;;;;13.73;5.68;;;19.30;93.80;;;;;;4973926;28;20035;-79
2023/10/03 07:13:38;;;;;;;11.68;4.28;;;19.30;93.80;;;;;;4956370;28;20062;-77
2023/10/03 07:16:04;;;;;;;10.45;4.88;;;19.40;93.80;;;;;;4973955;28;20070;-79
2023/10/03 07:18:29;;;;;;;11.50;4.72;;;19.40;93.70;;;;;;4973446;28;20484;-77
2023/10/03 07:20:58;;;;;;;9.65;4.38;;;19.40;93.70;;;;;;4973773;28;20042;-77
2023/10/03 07:23:23;;;;;;;12.65;4.90;;;19.50;93.60;;;;;;4973741;28;20114;-78
2023/10/03 07:25:49;;;;;;;13.20;4.63;;;19.50;93.60;;;;;;4973789;28;20550;-80
2023/10/03 07:28:14;;;;;;;12.45;5.32;;;19.50;93.60;;;;;;4956418;28;20053;-78
2023/10/03 07:30:41;;;;;;;11.38;4.90;;;19.40;93.60;;;;;;4973311;28;20046;-77
2023/10/03 07:33:11;;;;;;;12.40;5.22;;;19.40;93.70;;;;;;4973827;28;20042;-76
2023/10/03 07:35:41;;;;;;;10.95;5.35;;;19.40;93.80;;;;;;4974211;28;20042;-77
2023/10/03 07:38:10;;;;;;;12.15;5.60;;;19.40;93.80;;;;;;4976533;28;20027;-76
2023/10/03 07:40:38;;;;;;;9.43;4.72;;;19.40;93.90;;;;;;4959656;28;20082;-78
2023/10/03 07:43:12;;;;;;;11.10;5.55;;;19.30;94.00;;;;;;4977488;28;20030;-78
2023/10/03 07:45:41;;;;;;;15.32;5.95;;;19.30;94.50;;;;;;4960097;28;20044;-78
2023/10/03 07:48:09;;;;;;;11.88;5.35;;;19.30;94.40;;;;;;4976948;28;20102;-77
2023/10/03 07:50:37;;;;;;;12.13;5.55;;;19.20;94.60;;;;;;4977333;28;20045;-77
2023/10/03 07:53:11;;;;;;;12.68;4.88;;;19.20;94.70;;;;;;4976979;28;20035;-79
2023/10/03 07:55:38;;;;;;;;;;;19.20;94.80;;;;;;4977330;28;20030;-78
2023/10/03 07:58:05;;;;;;;9.10;3.90;;;19.20;94.60;;;;;;4977036;28;19906;-78
2023/10/03 08:00:31;;;;;;;10.15;3.38;;;19.20;94.50;;;;;;4976834;28;20125;-77
2023/10/03 08:02:57;;;;;;;11.48;3.50;;;19.10;94.50;;;;;;4976875;28;20089;-77
2023/10/03 08:05:27;;;;;;;9.68;3.38;;;19.10;94.80;;;;;;4977015;28;20031;-78
2023/10/03 08:07:57;;;;;;;10.65;3.10;;;19.10;94.50;;;;;;4959683;28;20031;-78
2023/10/03 08:10:24;;;;;;;7.47;2.88;;;19.10;94.40;;;;;;4976682;28;20475;-77
2023/10/03 08:12:52;;;;;;;6.95;2.30;;;19.10;94.30;;;;;;4976557;28;20050;-78
2023/10/03 08:15:23;;;;;;;6.70;2.08;;;19.10;94.30;;;;;;4976873;28;20478;-78
2023/10/03 08:17:53;;;;;;;8.55;1.85;;;19.10;94.20;;;;;;4976819;28;20090;-79
2023/10/03 08:20:21;;;;;;;9.77;2.00;;;19.10;94.10;;;;;;4959074;28;20027;-77
2023/10/03 08:22:53;;;;;;;6.53;1.58;;;19.10;93.80;;;;;;4976634;28;20039;-78
2023/10/03 08:25:25;;;;;;;7.85;2.28;;;19.10;93.80;;;;;;4959054;28;20035;-79
2023/10/03 08:27:52;;;;;;;4.72;1.25;;;19.10;93.90;;;;;;4959240;28;20046;-77
2023/10/03 08:30:29;;;;;;;7.55;1.23;;;19.10;93.90;;;;;;4976038;28;20034;-78
2023/10/03 08:33:06;;;;;;;6.97;1.48;;;19.10;93.90;;;;;;4958856;28;20065;-77
2023/10/03 08:35:35;;;;;;;5.70;1.52;;;19.00;93.90;;;;;;4959233;28;20035;-78
2023/10/03 08:38:05;;;;;;;6.28;1.17;;;19.00;94.00;;;;;;4976350;28;20113;-79
2023/10/03 08:40:38;;;;;;;6.30;1.30;;;19.00;94.40;;;;;;4976100;28;20121;-77
2023/10/03 08:43:08;;;;;;;6.47;1.05;;;18.90;94.20;;;;;;4976300;28;20050;-77
2023/10/03 08:45:41;;;;;;;7.22;1.20;;;18.80;94.60;;;;;;4975973;28;20301;-78
2023/10/03 08:48:08;;;;;;;8.07;1.42;;;18.80;95.30;;;;;;4974822;28;20507;-79
2023/10/03 08:50:40;;;;;;;7.90;1.30;;;18.70;96.10;;;;;;4958476;28;20579;-78
2023/10/03 08:55:50;;;;;;;7.88;1.40;;;18.40;97.20;;;;;;4976088;28;20521;-78
2023/10/03 08:58:18;;;;;;;6.22;1.33;;;18.30;97.70;;;;;;4976039;28;20062;-83
2023/10/03 09:00:49;;;;;;;7.03;1.15;;;18.30;98.30;;;;;;4975245;28;20043;-81
2023/10/03 09:03:17;;;;;;;5.13;1.10;;;18.20;98.60;;;;;;4976007;28;20486;-80
2023/10/03 09:05:45;;;;;;;4.82;1.02;;;18.10;98.90;;;;;;4976031;28;20023;-79
2023/10/03 09:08:15;;;;;;;3.20;0.65;;;18.10;99.00;;;;;;4975371;28;20027;-77
2023/10/03 09:10:52;;;;;;;5.00;0.80;;;18.20;99.10;;;;;;4975860;28;20034;-77
2023/10/03 09:13:24;;;;;;;5.55;0.95;;;18.20;99.10;;;;;;4975380;28;20047;-78
2023/10/03 09:16:07;;;;;;;6.30;0.90;;;18.20;99.10;;;;;;4975681;28;20550;-77
2023/10/03 09:18:40;;;;;;;3.67;0.98;;;18.20;99.10;;;;;;4958339;28;20065;-76
2023/10/03 09:21:07;;;;;;;2.83;0.57;;;18.20;99.40;;;;;;4975645;28;20191;-81
2023/10/03 09:23:40;;;;;;;8.27;1.13;;;18.20;98.80;;;;;;4975031;28;20134;-77
2023/10/03 09:26:07;;;;;;;2.22;0.50;;;18.20;98.40;;;;;;4957895;28;20062;-76
2023/10/03 09:28:37;;;;;;;2.53;0.50;;;18.10;98.10;;;;;;4958122;28;20027;-79
2023/10/03 09:31:08;;;;;;;2.63;0.50;;;18.20;97.90;;;;;;4975441;28;20045;-76
2023/10/03 09:33:40;;;;;;;3.83;0.50;;;18.10;97.70;;;;;;4975239;28;20118;-77
2023/10/03 09:36:06;;;;;;;4.55;0.82;;;18.20;97.70;;;;;;4975040;28;20090;-79
2023/10/03 09:38:46;;;;;;;4.45;0.85;;;18.20;97.80;;;;;;4974797;28;20118;-81
2023/10/03 09:41:17;;;;;;;2.55;0.50;;;18.30;97.30;;;;;;4974994;28;20039;-76
2023/10/03 09:43:56;;;;;;;5.07;0.50;;;18.50;97.20;;;;;;4974913;28;20042;-81
2023/10/03 09:46:23;;;;;;;3.75;0.60;;;18.60;96.30;;;;;;4974988;28;20140;-79
2023/10/03 09:48:56;;;;;;;3.67;0.50;;;18.60;96.10;;;;;;4974603;28;20035;-81
2023/10/03 09:51:36;;;;;;;3.78;0.60;;;18.70;95.40;;;;;;4974602;28;20035;-80
2023/10/03 09:54:10;;;;;;;5.38;0.88;;;18.60;94.90;;;;;;4957715;28;20121;-77
2023/10/03 09:56:40;;;;;;;5.38;0.43;;;18.60;94.80;;;;;;4974997;28;20121;-77
2023/10/03 09:59:07;;;;;;;3.00;0.50;;;18.50;94.20;;;;;;4974639;28;20046;-77
2023/10/03 10:01:39;;;;;;;2.45;0.60;;;18.40;94.30;;;;;;4975047;28;20054;-77
2023/10/03 10:04:09;;;;;;;5.82;0.50;;;18.30;94.40;;;;;;4974545;28;20041;-81
2023/10/03 10:06:47;;;;;;;2.95;0.50;;;18.30;94.40;;;;;;4956902;28;20034;-77
2023/10/03 10:09:29;;;;;;;5.20;0.47;;;18.20;94.40;;;;;;4974432;28;20031;-78
2023/10/03 10:12:15;;;;;;;4.93;0.65;;;18.20;94.30;;;;;;4974645;28;20027;-79
2023/10/03 10:17:57;;;;;;;3.53;0.35;;;18.30;94.20;;;;;;4974871;28;20037;-77
2023/10/03 10:20:37;;;;;;;7.80;0.73;;;18.50;94.20;;;;;;4956486;28;20058;-78
2023/10/03 10:23:04;;;;;;;3.58;0.63;;;18.50;93.90;;;;;;4974600;28;20039;-82
2023/10/03 10:25:41;;;;;;;5.10;0.80;;;18.60;93.40;;;;;;4975732;28;20085;-78
2023/10/03 10:28:08;;;;;;;3.78;0.52;;;18.60;93.20;;;;;;4982842;28;20154;-78
2023/10/03 10:30:35;;;;;;;5.05;0.50;;;18.60;93.00;;;;;;4974005;28;20118;-82
2023/10/03 10:33:16;;;;;;;5.53;0.50;;;18.60;92.90;;;;;;4983736;28;20026;-78
2023/10/03 10:35:54;;;;;;;4.38;0.50;;;18.60;92.80;;;;;;4973886;28;20082;-77
2023/10/03 10:38:22;;;;;;;3.00;0.50;;;18.50;92.90;;;;;;4974376;28;20035;-78
2023/10/03 10:44:16;;;;;;;3.67;0.50;;;18.50;92.90;;;;;;4974560;28;20035;-78
2023/10/03 10:46:52;;;;;;;5.47;0.60;;;18.50;92.80;;;;;;4974886;28;20542;-80
2023/10/03 10:49:39;;;;;;;2.85;0.60;;;18.40;92.40;;;;;;4982104;28;20042;-79
2023/10/03 10:52:09;;;;;;;5.38;0.80;;;18.30;92.10;;;;;;4974238;28;20491;-82
2023/10/03 10:54:42;;;;;;;4.22;0.85;;;18.20;91.90;;;;;;4973761;28;20106;-78
2023/10/03 10:57:14;;;;;;;4.43;0.60;;;18.10;92.10;;;;;;4975240;28;20483;-77
2023/10/03 10:59:40;;;;;;;4.18;0.38;;;18.00;92.00;;;;;;4974151;28;20042;-77
2023/10/03 11:02:26;;;;;;;3.53;0.47;;;18.00;92.30;;;;;;4975716;28;20065;-79
2023/10/03 11:04:59;;;;;;;4.15;0.60;;;18.00;92.40;;;;;;4982837;28;20045;-79
2023/10/03 11:07:27;;;;;;;3.55;0.60;;;17.90;92.50;;;;;;4956435;28;20577;-76
2023/10/03 11:09:55;;;;;;;4.38;0.60;;;17.90;92.60;;;;;;4956441;28;20039;-77
2023/10/03 11:12:25;;;;;;;2.20;0.40;;;17.80;92.70;;;;;;4976135;28;20110;-77
2023/10/03 11:14:52;;;;;;;3.28;0.70;;;17.80;92.80;;;;;;4977849;28;20086;-76
2023/10/03 11:17:24;;;;;;;2.53;0.50;;;17.80;93.00;;;;;;4977376;28;20398;-78
2023/10/03 11:19:52;;;;;;;4.65;0.68;;;17.80;93.00;;;;;;4977267;28;20035;-77
2023/10/03 11:22:18;;;;;;;3.45;0.52;;;17.80;93.00;;;;;;4977630;28;20035;-78
2023/10/03 11:24:45;;;;;;;4.70;0.68;;;17.80;93.00;;;;;;4977505;28;20038;-78
2023/10/03 11:27:31;;;;;;;2.33;0.38;;;17.70;93.10;;;;;;4967221;28;20022;-78
2023/10/03 11:29:57;;;;;;;6.20;0.70;;;17.70;93.50;;;;;;4977647;28;20043;-79
2023/10/03 11:32:30;;;;;;;3.63;0.40;;;17.50;93.40;;;;;;4959993;28;20093;-79
2023/10/03 11:34:57;;;;;;;1.75;0.43;;;17.40;93.10;;;;;;4977529;28;20027;-79
2023/10/03 11:37:31;;;;;;;3.60;0.60;;;17.40;93.20;;;;;;4959953;28;20418;-80
2023/10/03 11:40:14;;;;;;;6.10;0.50;;;17.40;93.40;;;;;;4959838;28;20041;-77
2023/10/03 11:42:58;;;;;;;6.53;0.85;;;17.40;93.60;;;;;;4977310;28;20039;-79
2023/10/03 11:45:32;;;;;;;3.63;0.50;;;17.30;93.80;;;;;;4977216;28;20062;-77
2023/10/03 11:48:17;;;;;;;3.67;0.50;;;17.30;94.00;;;;;;4977043;28;20466;-78
2023/10/03 11:50:44;;;;;;;3.22;0.63;;;17.20;94.20;;;;;;4975656;28;20114;-78
2023/10/03 11:53:12;;;;;;;4.05;0.75;;;17.10;94.20;;;;;;4959666;28;20502;-79
2023/10/03 11:55:40;;;;;;;5.43;0.65;;;17.10;94.50;;;;;;4977021;28;20043;-77
2023/10/03 11:58:06;;;;;;;3.13;0.47;;;17.10;94.50;;;;;;4976610;28;20550;-77
2023/10/03 12:00:33;;;;;;;5.15;0.85;;;17.00;94.50;;;;;;4976786;28;20122;-78
2023/10/03 12:02:59;;;;;;;4.55;0.75;;;17.00;94.50;;;;;;4976709;28;20134;-76
2023/10/03 12:05:27;;;;;;;3.70;0.68;;;17.00;94.70;;;;;;4976745;28;20042;-79
2023/10/03 12:07:56;;;;;;;4.32;0.77;;;16.90;94.80;;;;;;4976588;28;20035;-79
2023/10/03 12:10:24;;;;;;;6.40;1.35;;;16.90;95.00;;;;;;4958894;28;20515;-77
2023/10/03 12:12:50;;;;;;;3.25;0.77;;;16.80;95.50;;;;;;4979330;28;20130;-78
2023/10/03 12:15:17;;;;;;;4.20;0.55;;;16.70;96.10;;;;;;4965744;28;20042;-81
2023/10/03 12:17:46;;;;;;;3.75;0.75;;;16.60;96.40;;;;;;4975661;28;20316;-77
2023/10/03 12:20:14;;;;;;;7.43;1.30;;;16.50;96.70;;;;;;4957996;28;20039;-80
2023/10/03 12:22:45;;;;;;;8.45;1.50;;;16.40;96.90;;;;;;4975931;28;20042;-78
2023/10/03 12:25:12;;;;;;;5.22;0.95;;;16.20;96.30;;;;;;4976066;28;20443;-77
2023/10/03 12:27:38;;;;;;;5.68;1.67;;;16.10;96.20;;;;;;4975933;28;21050;-81
2023/10/03 12:30:08;;;;;;;9.38;2.15;;;16.00;96.60;;;;;;4958771;28;20034;-82
2023/10/03 12:32:35;;;;;;;6.30;1.17;;;16.00;96.80;;;;;;4976065;28;20122;-78
2023/10/03 12:35:02;;;;;;;8.02;1.73;;;15.90;97.00;;;;;;4976032;28;20094;-77
2023/10/03 12:37:28;;;;;;;5.38;1.58;;;16.00;97.30;;;;;;4976299;28;20046;-77
2023/10/03 12:39:55;;;;;;;7.93;1.30;;;16.00;97.50;;;;;;4976120;28;20035;-82
2023/10/03 12:42:21;;;;;;;6.13;1.30;;;16.00;97.60;;;;;;4976011;28;20063;-78
2023/10/03 12:44:46;;;;;;;7.45;1.65;;;16.00;97.60;;;;;;4975764;28;20122;-85
2023/10/03 12:47:12;;;;;;;8.95;2.65;;;16.00;97.60;;;;;;4976176;28;20038;-75
2023/10/03 12:49:37;;;;;;;6.13;1.30;;;16.10;97.60;;;;;;4975554;28;20050;-80
2023/10/03 12:52:03;;;;;;;7.65;1.50;;;16.10;97.70;;;;;;4959793;28;20039;-79
2023/10/03 12:54:29;;;;;;;6.43;1.30;;;16.10;97.00;;;;;;4977262;28;20542;-77
2023/10/03 12:56:55;;;;;;;5.43;1.17;;;16.00;96.90;;;;;;4975837;28;20118;-82
2023/10/03 12:59:21;;;;;;;6.20;1.13;;;16.00;96.80;;;;;;4975488;28;20107;-78
2023/10/03 13:01:47;;;;;;;9.55;1.85;;;16.00;96.90;;;;;;4957950;28;20039;-81
2023/10/03 13:04:18;;;;;;;6.15;1.40;;;16.10;97.10;;;;;;4975712;28;20035;-76